Main page
METAR-TAF:

METAR-TAF

Airports :

Shanghai-Pudong, China

Shanghai Pudong International Airport

latitude: 31-07N, longitude: 121-46E, elevation: 4 m

Current weather observation

The report was made 38 minutes ago, at 08:30 UTC
Wind 10 kt from the East/Southeast, varying between East and Southeast
Temperature 20°C
Humidity 88%
Pressure 1015 hPa
Visibility 10 km or more
Few clouds at a height of 1500 ft
light rain showers

METAR: ZSPD 230830Z 12005MPS 080V140 9999 -SHRA FEW015 20/18 Q1015 NOSIG

Time: 17:08 (09:08 UTC)

Forecast

The report was made 5 hours and 43 minutes ago, at 03:25 UTC
Forecast valid from 23 at 06 UTC to 24 at 06 UTC
Wind 8 kt from the East
Visibility: 6000 m
Broken clouds at a height of 1300 ft
Temporary
from 23 at 22 UTC to 24 at 02 UTC
rain showers

TAF: ZSPD 230325Z 2306/2406 08004MPS 6000 BKN013 TX23/2306Z TN18/2321Z TEMPO 2322/2402 SHRA

Weather observations and forecasts of more than 4000 airports (METAR and TAF reports).

The available stations are represented by yellow and red dots on the map.

Hover mouse over dot to see the name of the station.

Then click to see weather observations and forecasts.

To change the map : click on the green buttons with a black cross to zoom in, on the green button with a dash to zoom out, or on the green arrows for adjacent maps.


METAR-TAF: